Time;durP1;ratioP1;P1;durP2;ratioP2;P2;SDS_P1;SDS_P2;PMS_P1;PMS_P2;Temp;Humidity;BMP_temperature;BMP_pressure;BME280_temperature;BME280_humidity;BME280_pressure;Samples;Min_cycle;Max_cycle;Signal;HPM_P1;HPM_P2
2022/01/05 00:00:52;;;;;;;3.60;1.40;;;;;;;;;;6188131;23;20168;-93
2022/01/05 00:04:00;;;;;;;1.40;1.00;;;;;;;;;;6186735;23;20172;-92
2022/01/05 00:13:00;;;;;;;3.20;1.80;;;;;;;;;;6167223;23;20212;-92
2022/01/05 00:16:07;;;;;;;4.50;1.80;;;;;;;;;;6186185;23;20203;-93
2022/01/05 00:19:12;;;;;;;4.33;2.00;;;;;;;;;;6186396;23;20175;-93
2022/01/05 00:22:17;;;;;;;4.03;2.13;;;;;;;;;;6186835;23;20164;-91
2022/01/05 00:25:23;;;;;;;5.00;2.27;;;;;;;;;;6186324;23;20172;-92
2022/01/05 00:28:28;;;;;;;3.10;1.80;;;;;;;;;;6187276;23;20192;-92
2022/01/05 00:31:35;;;;;;;3.23;1.77;;;;;;;;;;6187499;23;20171;-92
2022/01/05 00:43:28;;;;;;;2.03;1.20;;;;;;;;;;6161862;23;20215;-92
2022/01/05 00:46:35;;;;;;;2.90;1.30;;;;;;;;;;6189279;23;20163;-91
2022/01/05 00:49:40;;;;;;;1.77;1.17;;;;;;;;;;6188368;23;20707;-92
2022/01/05 00:52:45;;;;;;;1.80;1.30;;;;;;;;;;6189757;23;20176;-90
2022/01/05 00:55:51;;;;;;;1.87;1.40;;;;;;;;;;6157774;23;20214;-92
2022/01/05 00:58:57;;;;;;;1.57;1.00;;;;;;;;;;6186828;23;20168;-92
2022/01/05 01:02:03;;;;;;;2.10;1.20;;;;;;;;;;6188303;23;20172;-91
2022/01/05 01:05:09;;;;;;;1.20;1.00;;;;;;;;;;6186783;23;20168;-91
2022/01/05 01:08:14;;;;;;;1.30;1.10;;;;;;;;;;6186407;23;20172;-91
2022/01/05 01:11:20;;;;;;;1.50;1.23;;;;;;;;;;6185255;23;20156;-91
2022/01/05 01:14:25;;;;;;;2.10;1.30;;;;;;;;;;6189801;23;20151;-89
2022/01/05 01:17:33;;;;;;;1.60;1.10;;;;;;;;;;6187931;23;20210;-92
2022/01/05 01:20:38;;;;;;;2.13;1.47;;;;;;;;;;6188200;23;20159;-92
2022/01/05 01:23:54;;;;;;;3.27;1.77;;;;;;;;;;6186437;23;20220;-91
2022/01/05 01:26:59;;;;;;;2.33;1.40;;;;;;;;;;6187880;23;20159;-93
2022/01/05 01:30:04;;;;;;;1.43;1.30;;;;;;;;;;6188529;23;20199;-92
2022/01/05 01:33:10;;;;;;;1.40;1.20;;;;;;;;;;6186235;23;20264;-91
2022/01/05 01:36:16;;;;;;;1.93;1.40;;;;;;;;;;6187533;23;20151;-93
2022/01/05 01:39:22;;;;;;;1.70;1.13;;;;;;;;;;6187886;23;20163;-91
2022/01/05 01:42:27;;;;;;;3.20;1.53;;;;;;;;;;6189300;23;20246;-94
2022/01/05 01:45:34;;;;;;;1.77;1.27;;;;;;;;;;6187730;23;20175;-92
2022/01/05 01:48:41;;;;;;;1.60;1.20;;;;;;;;;;6188972;23;20175;-92
2022/01/05 01:51:47;;;;;;;2.37;1.50;;;;;;;;;;6187080;23;20259;-94
2022/01/05 01:54:52;;;;;;;1.63;1.20;;;;;;;;;;6187701;23;20240;-91
2022/01/05 01:57:58;;;;;;;1.80;1.20;;;;;;;;;;6173004;23;20255;-93
2022/01/05 02:01:04;;;;;;;2.23;1.57;;;;;;;;;;6174220;23;20149;-92
2022/01/05 02:04:10;;;;;;;1.90;1.40;;;;;;;;;;6174379;23;20164;-91
2022/01/05 02:07:15;;;;;;;1.70;1.47;;;;;;;;;;6172281;23;20240;-92
2022/01/05 02:10:20;;;;;;;1.93;1.00;;;;;;;;;;6172756;23;20176;-92
2022/01/05 02:13:25;;;;;;;2.70;1.30;;;;;;;;;;6174095;23;20168;-91
2022/01/05 02:16:32;;;;;;;3.23;1.10;;;;;;;;;;6174271;23;20172;-90
2022/01/05 02:19:39;;;;;;;2.10;1.10;;;;;;;;;;6172459;23;20194;-92
2022/01/05 02:22:46;;;;;;;3.07;1.00;;;;;;;;;;6173426;23;20500;-91
2022/01/05 02:25:51;;;;;;;1.10;0.77;;;;;;;;;;6172734;23;20192;-92
2022/01/05 02:28:56;;;;;;;0.63;0.53;;;;;;;;;;6171375;23;20157;-92
2022/01/05 02:32:06;;;;;;;1.10;0.60;;;;;;;;;;6172035;23;20168;-93
2022/01/05 02:35:13;;;;;;;0.93;0.63;;;;;;;;;;6173222;23;20160;-91
2022/01/05 02:38:20;;;;;;;0.67;0.60;;;;;;;;;;6173457;23;20204;-91
2022/01/05 02:41:25;;;;;;;0.87;0.70;;;;;;;;;;6173734;23;20168;-91
2022/01/05 02:44:30;;;;;;;0.93;0.67;;;;;;;;;;6170870;23;20168;-92
2022/01/05 02:47:35;;;;;;;0.83;0.67;;;;;;;;;;6173035;23;20175;-91
2022/01/05 02:50:41;;;;;;;3.23;0.70;;;;;;;;;;6172195;23;20280;-91
2022/01/05 02:53:48;;;;;;;1.33;0.90;;;;;;;;;;6172466;23;20216;-91
2022/01/05 02:56:54;;;;;;;0.87;0.70;;;;;;;;;;6173723;23;20204;-91
2022/01/05 03:00:00;;;;;;;1.27;0.70;;;;;;;;;;6172829;23;20163;-92
2022/01/05 03:03:05;;;;;;;1.10;0.90;;;;;;;;;;6169090;23;20248;-93
2022/01/05 03:06:11;;;;;;;4.17;1.57;;;;;;;;;;6172739;23;20184;-91
2022/01/05 03:09:18;;;;;;;4.37;1.70;;;;;;;;;;6170809;23;20169;-92
2022/01/05 03:12:22;;;;;;;2.70;1.37;;;;;;;;;;6171700;23;20160;-92
2022/01/05 03:15:28;;;;;;;2.00;1.07;;;;;;;;;;6172643;23;20512;-92
2022/01/05 03:18:33;;;;;;;2.13;1.00;;;;;;;;;;6173289;23;20212;-91
2022/01/05 03:21:39;;;;;;;2.97;0.80;;;;;;;;;;6171799;23;20169;-93
2022/01/05 03:24:46;;;;;;;0.60;0.60;;;;;;;;;;6171702;23;20234;-92
2022/01/05 03:27:52;;;;;;;0.83;0.70;;;;;;;;;;6173108;23;20185;-91
2022/01/05 03:30:57;;;;;;;1.27;0.70;;;;;;;;;;6171169;23;20168;-91
2022/01/05 03:34:04;;;;;;;0.73;0.60;;;;;;;;;;6171721;23;20172;-92
2022/01/05 03:37:09;;;;;;;1.33;0.70;;;;;;;;;;6170660;23;20530;-91
2022/01/05 03:40:16;;;;;;;0.50;0.50;;;;;;;;;;6171330;23;20228;-93
2022/01/05 03:43:21;;;;;;;0.50;0.50;;;;;;;;;;6170855;23;20168;-92
2022/01/05 03:46:25;;;;;;;0.60;0.60;;;;;;;;;;6171609;23;20168;-91
2022/01/05 03:49:31;;;;;;;0.67;0.60;;;;;;;;;;6172507;23;20241;-93
2022/01/05 03:52:36;;;;;;;0.93;0.60;;;;;;;;;;6172672;23;20177;-93
2022/01/05 03:55:44;;;;;;;0.53;0.53;;;;;;;;;;6171950;23;20235;-92
2022/01/05 03:58:49;;;;;;;0.90;0.70;;;;;;;;;;6169292;23;20195;-92
2022/01/05 04:01:54;;;;;;;0.93;0.60;;;;;;;;;;6170680;23;20170;-91
2022/01/05 04:04:59;;;;;;;0.50;0.50;;;;;;;;;;6171192;23;20292;-91
2022/01/05 04:08:04;;;;;;;0.60;0.60;;;;;;;;;;6171889;23;20173;-91
2022/01/05 04:11:11;;;;;;;1.37;0.80;;;;;;;;;;6173862;23;20164;-91
2022/01/05 04:14:16;;;;;;;0.60;0.60;;;;;;;;;;6172347;23;20624;-91
2022/01/05 04:34:59;;;;;;;3.37;1.03;;;;;;;;;;6124069;23;20240;-92
2022/01/05 04:38:04;;;;;;;2.23;1.20;;;;;;;;;;6153059;23;20196;-91
2022/01/05 04:41:10;;;;;;;1.33;0.90;;;;;;;;;;6154848;23;20176;-90
2022/01/05 04:44:15;;;;;;;0.90;0.80;;;;;;;;;;6155601;23;20193;-93
2022/01/05 04:47:20;;;;;;;1.13;0.90;;;;;;;;;;6156179;23;20168;-91
2022/01/05 04:50:27;;;;;;;3.70;1.00;;;;;;;;;;6154106;23;20173;-92
2022/01/05 04:53:32;;;;;;;1.87;1.10;;;;;;;;;;6155251;23;20157;-92
2022/01/05 04:56:37;;;;;;;2.87;1.10;;;;;;;;;;6154911;23;20168;-91
2022/01/05 04:59:43;;;;;;;1.40;1.10;;;;;;;;;;6153129;23;20169;-91
2022/01/05 05:02:51;;;;;;;1.50;1.20;;;;;;;;;;6154376;23;20245;-92
2022/01/05 05:05:57;;;;;;;2.23;1.27;;;;;;;;;;6153199;23;20168;-92
2022/01/05 05:09:02;;;;;;;1.83;1.33;;;;;;;;;;6152827;23;20176;-92
2022/01/05 05:12:08;;;;;;;1.27;1.17;;;;;;;;;;6153297;23;20193;-92
2022/01/05 05:15:13;;;;;;;1.50;1.10;;;;;;;;;;6152242;23;20164;-91
2022/01/05 05:18:18;;;;;;;1.30;1.03;;;;;;;;;;6152576;23;20251;-92
2022/01/05 07:24:57;;;;;;;4.63;2.03;;;;;;;;;;6127149;23;20196;-89
2022/01/05 07:28:02;;;;;;;4.53;2.07;;;;;;;;;;6185661;23;20196;-89
2022/01/05 07:31:08;;;;;;;4.47;2.20;;;;;;;;;;6182121;23;20241;-90
2022/01/05 07:34:13;;;;;;;3.27;1.97;;;;;;;;;;6187663;23;20153;-91
2022/01/05 07:37:19;;;;;;;2.83;1.77;;;;;;;;;;6186747;23;20168;-91
2022/01/05 07:40:27;;;;;;;3.30;2.07;;;;;;;;;;6184611;23;20626;-92
2022/01/05 07:43:32;;;;;;;3.30;2.00;;;;;;;;;;6186019;23;20287;-91
2022/01/05 07:46:38;;;;;;;7.23;3.33;;;;;;;;;;6184528;23;20155;-91
2022/01/05 07:49:46;;;;;;;16.93;7.37;;;;;;;;;;6187244;23;20176;-90
2022/01/05 07:52:52;;;;;;;4.10;2.47;;;;;;;;;;6189060;23;20196;-90
2022/01/05 07:56:00;;;;;;;6.13;2.47;;;;;;;;;;6186619;23;20187;-89
2022/01/05 07:59:05;;;;;;;5.63;2.30;;;;;;;;;;6185506;23;20236;-90
2022/01/05 08:02:10;;;;;;;2.57;1.57;;;;;;;;;;6184641;23;20201;-90
2022/01/05 08:05:16;;;;;;;4.67;2.40;;;;;;;;;;6185395;23;20152;-90
2022/01/05 08:08:22;;;;;;;3.97;2.47;;;;;;;;;;6186557;23;20240;-90
2022/01/05 08:11:29;;;;;;;3.90;2.30;;;;;;;;;;6186419;23;20223;-91
2022/01/05 08:14:35;;;;;;;4.13;2.20;;;;;;;;;;6186998;23;20171;-90
2022/01/05 08:17:43;;;;;;;2.60;1.80;;;;;;;;;;6186277;23;20686;-90
2022/01/05 08:21:08;;;;;;;4.20;2.10;;;;;;;;;;6189061;23;20192;-90
2022/01/05 08:24:13;;;;;;;5.33;2.70;;;;;;;;;;6187280;23;20167;-91
2022/01/05 08:27:19;;;;;;;6.13;3.03;;;;;;;;;;6174846;23;20604;-92
2022/01/05 08:30:27;;;;;;;4.40;2.40;;;;;;;;;;6173782;23;20159;-90
2022/01/05 08:33:34;;;;;;;4.20;2.40;;;;;;;;;;6176575;23;20189;-91
2022/01/05 08:36:39;;;;;;;4.60;1.80;;;;;;;;;;6175610;23;20193;-92
2022/01/05 08:39:45;;;;;;;3.50;1.40;;;;;;;;;;6174047;23;20195;-91
2022/01/05 08:42:52;;;;;;;3.50;1.53;;;;;;;;;;6175504;23;20160;-90
2022/01/05 08:45:57;;;;;;;2.43;1.50;;;;;;;;;;6173931;23;20165;-92
2022/01/05 08:49:04;;;;;;;2.60;1.40;;;;;;;;;;6173800;23;20284;-91
2022/01/05 08:52:09;;;;;;;1.83;1.10;;;;;;;;;;6175226;23;20216;-92
2022/01/05 08:55:16;;;;;;;2.80;1.17;;;;;;;;;;6173736;23;20243;-90
2022/01/05 08:58:24;;;;;;;2.53;1.27;;;;;;;;;;6175294;23;20244;-92
2022/01/05 09:01:29;;;;;;;1.40;1.17;;;;;;;;;;6176808;23;20205;-93
2022/01/05 09:04:36;;;;;;;1.07;0.97;;;;;;;;;;6176611;23;20218;-90
2022/01/05 09:07:41;;;;;;;1.23;1.00;;;;;;;;;;6177941;23;20153;-92
2022/01/05 09:10:47;;;;;;;1.93;1.07;;;;;;;;;;6160699;23;20607;-92
2022/01/05 09:13:54;;;;;;;1.10;0.90;;;;;;;;;;6177352;23;20165;-92
2022/01/05 09:16:59;;;;;;;2.07;0.97;;;;;;;;;;6176397;23;20163;-93
2022/01/05 09:20:05;;;;;;;1.20;0.90;;;;;;;;;;6174765;23;20204;-91
2022/01/05 09:23:11;;;;;;;1.40;1.00;;;;;;;;;;6176239;23;20221;-93
2022/01/05 09:26:18;;;;;;;2.83;1.30;;;;;;;;;;6176152;23;20188;-93
2022/01/05 09:29:25;;;;;;;0.80;0.80;;;;;;;;;;6173656;23;20168;-91
2022/01/05 09:32:34;;;;;;;2.13;1.20;;;;;;;;;;6174337;23;20312;-91
2022/01/05 09:35:41;;;;;;;3.20;1.50;;;;;;;;;;6173867;23;20218;-90
2022/01/05 09:42:14;;;;;;;3.63;1.37;;;;;;;;;;6177930;23;20284;-91
2022/01/05 09:45:22;;;;;;;1.10;0.80;;;;;;;;;;6176292;23;20152;-93
2022/01/05 09:48:43;;;;;;;1.37;0.90;;;;;;;;;;6176305;23;20191;-91
2022/01/05 09:51:52;;;;;;;3.70;0.70;;;;;;;;;;6177832;23;20198;-91
2022/01/05 09:55:00;;;;;;;0.80;0.80;;;;;;;;;;6177195;23;20201;-92
2022/01/05 09:58:06;;;;;;;1.37;1.10;;;;;;;;;;6175743;23;20169;-92
2022/01/05 10:01:15;;;;;;;2.17;1.17;;;;;;;;;;6174876;23;20241;-92
2022/01/05 10:04:20;;;;;;;1.03;0.83;;;;;;;;;;6176119;23;20246;-93
2022/01/05 10:07:26;;;;;;;1.40;0.90;;;;;;;;;;6177683;23;20178;-91
2022/01/05 14:08:10;;;;;;;6.13;2.17;;;;;;;;;;6148145;23;20193;-91
2022/01/05 14:11:17;;;;;;;8.37;2.30;;;;;;;;;;6130576;23;20157;-91
2022/01/05 14:14:22;;;;;;;9.37;2.37;;;;;;;;;;6128810;23;20161;-91
2022/01/05 14:17:28;;;;;;;8.87;2.37;;;;;;;;;;6131368;23;20208;-90
2022/01/05 14:20:35;;;;;;;6.57;2.10;;;;;;;;;;6129751;23;20197;-91
2022/01/05 14:23:46;;;;;;;7.63;2.57;;;;;;;;;;6130566;23;20209;-90
2022/01/05 14:26:51;;;;;;;4.77;1.97;;;;;;;;;;6127223;23;20146;-92
2022/01/05 14:30:00;;;;;;;5.60;2.00;;;;;;;;;;6127127;23;20272;-92
2022/01/05 14:33:06;;;;;;;10.13;2.03;;;;;;;;;;6141505;23;20158;-92
2022/01/05 14:36:22;;;;;;;5.27;2.03;;;;;;;;;;6125713;23;20165;-89
2022/01/05 14:39:36;;;;;;;5.43;1.90;;;;;;;;;;6126382;23;20253;-92
2022/01/05 14:42:54;;;;;;;4.10;1.80;;;;;;;;;;6128061;23;20258;-92
2022/01/05 14:46:00;;;;;;;7.43;1.80;;;;;;;;;;6128941;23;20174;-91
2022/01/05 14:49:05;;;;;;;8.23;2.30;;;;;;;;;;6128397;23;20225;-90
2022/01/05 14:52:13;;;;;;;5.90;2.20;;;;;;;;;;6129391;23;20241;-92
2022/01/05 14:55:34;;;;;;;7.90;2.20;;;;;;;;;;6129259;23;20248;-91
2022/01/05 14:58:42;;;;;;;7.37;2.03;;;;;;;;;;6130919;23;20165;-91
2022/01/05 15:01:47;;;;;;;4.10;1.83;;;;;;;;;;6130443;23;20284;-92
2022/01/05 15:04:53;;;;;;;7.70;1.93;;;;;;;;;;6130229;23;20227;-91
2022/01/05 15:07:58;;;;;;;10.77;2.60;;;;;;;;;;6131095;23;20198;-92
2022/01/05 15:11:04;;;;;;;7.87;3.00;;;;;;;;;;6129026;23;20172;-91
2022/01/05 15:18:33;;;;;;;8.17;2.70;;;;;;;;;;6147618;23;20221;-91
2022/01/05 15:21:39;;;;;;;5.37;1.90;;;;;;;;;;6129997;23;20169;-92
2022/01/05 15:24:45;;;;;;;6.30;2.33;;;;;;;;;;6130870;23;20174;-93
2022/01/05 15:27:52;;;;;;;6.87;2.00;;;;;;;;;;6130506;23;20237;-91
2022/01/05 15:30:59;;;;;;;7.60;1.80;;;;;;;;;;6146906;23;20209;-90
2022/01/05 15:34:06;;;;;;;7.23;2.83;;;;;;;;;;6130395;23;20168;-92
2022/01/05 15:37:12;;;;;;;11.93;2.30;;;;;;;;;;6128678;23;20217;-90
2022/01/05 15:40:19;;;;;;;7.83;2.90;;;;;;;;;;6127990;23;20229;-91
2022/01/05 15:43:24;;;;;;;4.47;1.50;;;;;;;;;;6128425;23;20217;-90
2022/01/05 15:46:30;;;;;;;6.97;2.03;;;;;;;;;;6127899;23;20186;-92
2022/01/05 15:49:39;;;;;;;5.80;2.27;;;;;;;;;;6127765;23;20189;-90
2022/01/05 15:52:45;;;;;;;9.33;2.40;;;;;;;;;;6128911;23;20178;-91
2022/01/05 15:55:56;;;;;;;4.30;1.90;;;;;;;;;;6126243;23;20177;-91
2022/01/05 16:02:24;;;;;;;4.73;1.60;;;;;;;;;;6128644;23;20209;-92
2022/01/05 16:05:32;;;;;;;8.73;2.70;;;;;;;;;;6126882;23;20209;-90
2022/01/05 16:08:37;;;;;;;8.53;3.47;;;;;;;;;;6128922;23;20185;-91
2022/01/05 16:11:57;;;;;;;9.30;3.03;;;;;;;;;;6127528;23;20225;-91
2022/01/05 16:15:10;;;;;;;8.83;2.37;;;;;;;;;;6130072;23;20186;-90
2022/01/05 16:18:16;;;;;;;3.67;1.50;;;;;;;;;;6128989;23;20477;-90
2022/01/05 16:21:22;;;;;;;6.67;2.20;;;;;;;;;;6129324;23;20221;-90
2022/01/05 16:24:28;;;;;;;5.20;1.70;;;;;;;;;;6127680;23;20177;-90
2022/01/05 16:27:33;;;;;;;4.57;1.57;;;;;;;;;;6127967;23;20185;-90
2022/01/05 16:30:38;;;;;;;7.17;1.90;;;;;;;;;;6127387;23;20171;-90
2022/01/05 16:33:45;;;;;;;3.87;1.80;;;;;;;;;;6128449;23;20148;-92
2022/01/05 16:36:51;;;;;;;3.87;1.63;;;;;;;;;;6128397;23;20206;-89
2022/01/05 18:22:43;;;;;;;7.47;2.03;;;;;;;;;;6170136;23;20217;-91
2022/01/05 18:25:48;;;;;;;7.60;2.00;;;;;;;;;;6158669;23;20197;-91
2022/01/05 18:28:54;;;;;;;6.40;1.87;;;;;;;;;;6158491;23;20237;-91
2022/01/05 18:32:00;;;;;;;7.57;2.00;;;;;;;;;;6157496;23;20181;-89
2022/01/05 18:35:07;;;;;;;3.60;1.80;;;;;;;;;;6155515;23;20180;-90
2022/01/05 18:38:15;;;;;;;12.43;2.73;;;;;;;;;;6157139;23;20168;-90
2022/01/05 18:41:22;;;;;;;13.37;3.27;;;;;;;;;;6158231;23;20196;-91
2022/01/05 18:44:28;;;;;;;11.07;2.33;;;;;;;;;;6158160;23;20164;-91
2022/01/05 23:06:01;;;;;;;7.73;2.07;;;;;;;;;;6187668;23;20204;-91
2022/01/05 23:09:20;;;;;;;12.27;2.73;;;;;;;;;;6192029;23;20185;-91
2022/01/05 23:12:29;;;;;;;11.93;2.43;;;;;;;;;;6209536;23;20176;-91
2022/01/05 23:15:44;;;;;;;7.00;2.10;;;;;;;;;;6192863;23;20176;-90
2022/01/05 23:22:09;;;;;;;5.57;2.20;;;;;;;;;;6190894;23;20193;-91
2022/01/05 23:31:57;;;;;;;9.83;2.40;;;;;;;;;;6133057;23;20246;-91
2022/01/05 23:39:24;;;;;;;6.87;1.70;;;;;;;;;;6147860;23;20204;-91
2022/01/05 23:42:30;;;;;;;9.13;2.33;;;;;;;;;;6133026;23;20173;-91
2022/01/05 23:45:45;;;;;;;12.17;1.70;;;;;;;;;;6132194;23;20165;-91
2022/01/05 23:48:53;;;;;;;9.53;2.03;;;;;;;;;;6132134;23;20217;-91
2022/01/05 23:51:59;;;;;;;14.10;2.63;;;;;;;;;;6132774;23;20190;-90
2022/01/05 23:55:06;;;;;;;8.70;2.50;;;;;;;;;;6131346;23;20177;-92
2022/01/05 23:58:12;;;;;;;12.83;2.70;;;;;;;;;;6131346;23;20161;-93
